createdAt,value
2023-04-18T00:02:45.612Z,20.80
2023-04-18T00:07:45.076Z,20.50
2023-04-18T00:12:44.831Z,19.30
2023-04-18T00:17:44.636Z,19.00
2023-04-18T00:22:45.560Z,18.80
2023-04-18T00:27:44.501Z,18.80
2023-04-18T00:32:45.455Z,17.80
2023-04-18T00:37:44.521Z,18.10
2023-04-18T00:39:48.217Z,18.10
2023-04-18T00:42:44.434Z,17.50
2023-04-18T00:47:44.949Z,18.50
2023-04-18T00:52:45.234Z,18.40
2023-04-18T00:57:44.907Z,18.10
2023-04-18T01:02:47.010Z,17.90
2023-04-18T01:07:44.708Z,16.60
2023-04-18T01:12:44.694Z,18.80
2023-04-18T01:17:45.379Z,17.10
2023-04-18T01:22:44.502Z,18.40
2023-04-18T01:27:44.470Z,18.60
2023-04-18T01:32:45.644Z,18.90
2023-04-18T01:37:44.885Z,19.50
2023-04-18T01:42:44.665Z,18.60
2023-04-18T01:47:45.410Z,19.10
2023-04-18T01:52:44.440Z,18.10
2023-04-18T01:57:44.533Z,19.10
2023-04-18T02:02:45.367Z,19.00
2023-04-18T02:07:44.743Z,19.50
2023-04-18T02:12:44.784Z,19.10
2023-04-18T02:17:45.161Z,18.30
2023-04-18T02:22:46.276Z,19.00
2023-04-18T02:27:44.379Z,19.70
2023-04-18T02:32:45.316Z,21.40
2023-04-18T02:37:44.452Z,21.00
2023-04-18T02:42:44.861Z,21.20
2023-04-18T02:47:54.545Z,21.50
2023-04-18T02:52:44.507Z,20.90
2023-04-18T02:57:44.445Z,20.90
2023-04-18T03:02:45.064Z,20.80
2023-04-18T03:07:44.459Z,22.30
2023-04-18T03:12:46.851Z,20.20
2023-04-18T03:17:45.209Z,21.30
2023-04-18T03:22:44.439Z,22.70
2023-04-18T03:27:44.365Z,22.30
2023-04-18T03:32:45.776Z,21.50
2023-04-18T03:37:44.458Z,21.60
2023-04-18T03:42:44.359Z,21.30
2023-04-18T03:47:45.997Z,21.00
2023-04-18T03:52:44.335Z,21.20
2023-04-18T03:57:44.459Z,21.10
2023-04-18T04:02:44.982Z,21.90
2023-04-18T04:07:44.459Z,22.10
2023-04-18T04:12:44.461Z,22.30
2023-04-18T04:17:45.419Z,22.20
2023-04-18T04:22:44.349Z,21.80
2023-04-18T04:27:44.586Z,21.60
2023-04-18T04:32:45.488Z,20.30
2023-04-18T04:37:44.640Z,21.10
2023-04-18T04:42:45.796Z,21.50
2023-04-18T04:47:45.109Z,19.80
2023-04-18T04:52:44.535Z,20.40
2023-04-18T04:57:44.596Z,20.90
2023-04-18T05:02:45.239Z,19.60
2023-04-18T05:07:44.348Z,20.00
2023-04-18T05:12:44.463Z,20.30
2023-04-18T05:17:45.494Z,19.30
2023-04-18T05:22:44.279Z,19.40
2023-04-18T05:27:45.427Z,18.80
2023-04-18T05:32:45.540Z,18.90
2023-04-18T05:37:44.321Z,19.80
2023-04-18T05:41:20.452Z,18.40
2023-04-18T05:42:44.410Z,18.40
2023-04-18T05:47:45.297Z,18.40
2023-04-18T05:52:44.657Z,18.60
2023-04-18T05:57:44.821Z,19.30
2023-04-18T06:02:45.147Z,19.10
2023-04-18T06:07:44.244Z,18.80
2023-04-18T06:17:44.880Z,18.90
2023-04-18T06:22:44.344Z,19.60
2023-04-18T06:27:44.364Z,18.40
2023-04-18T06:32:44.654Z,19.20
2023-04-18T06:37:45.028Z,19.20
2023-04-18T06:42:44.194Z,17.90
2023-04-18T06:47:45.109Z,18.30
2023-04-18T06:52:44.609Z,21.10
2023-04-18T06:57:44.302Z,86.50
2023-04-18T07:02:44.838Z,29.00
2023-04-18T07:07:44.313Z,34.50
2023-04-18T07:12:44.361Z,44.40
2023-04-18T07:17:44.729Z,23.90
2023-04-18T07:22:44.924Z,66.40
2023-04-18T07:27:45.585Z,24.10
2023-04-18T07:32:45.416Z,25.20
2023-04-18T07:37:44.460Z,17.80
2023-04-18T07:42:44.581Z,21.80
2023-04-18T07:47:44.478Z,21.30
2023-04-18T07:52:46.794Z,18.90
2023-04-18T07:57:49.205Z,16.60
2023-04-18T08:02:44.838Z,22.20
2023-04-18T08:07:44.422Z,15.70
2023-04-18T08:12:44.194Z,14.40
2023-04-18T08:17:47.906Z,15.60
2023-04-18T08:23:02.384Z,13.70
2023-04-18T08:27:44.512Z,13.40
2023-04-18T08:32:44.261Z,12.10
2023-04-18T08:37:44.249Z,12.80
2023-04-18T08:42:44.540Z,12.30
2023-04-18T08:47:46.429Z,12.20
2023-04-18T08:53:14.286Z,12.50
2023-04-18T08:57:44.170Z,15.70
2023-04-18T09:02:45.936Z,14.60
2023-04-18T09:07:44.707Z,18.00
2023-04-18T09:12:49.341Z,11.70
2023-04-18T09:17:48.410Z,10.90
2023-04-18T09:22:46.982Z,16.80
2023-04-18T09:27:44.261Z,10.40
2023-04-18T09:32:56.204Z,11.10
2023-04-18T09:37:49.257Z,10.40
2023-04-18T09:42:44.415Z,10.40
2023-04-18T09:47:44.301Z,9.50
2023-04-18T09:52:44.802Z,9.60
2023-04-18T09:57:45.928Z,9.70
2023-04-18T10:02:50.022Z,10.10
2023-04-18T10:07:48.446Z,10.00
2023-04-18T10:12:47.033Z,11.40
2023-04-18T10:18:02.773Z,11.40
2023-04-18T10:22:44.183Z,11.50
2023-04-18T10:27:56.796Z,10.20
2023-04-18T10:32:45.407Z,12.10
2023-04-18T10:37:49.346Z,11.40
2023-04-18T10:42:57.463Z,11.30
2023-04-18T10:47:44.449Z,10.80
2023-04-18T10:52:44.402Z,10.50
2023-04-18T10:57:46.048Z,11.80
2023-04-18T11:02:49.547Z,10.70
2023-04-18T11:07:45.130Z,11.10
2023-04-18T11:12:44.408Z,10.80
2023-04-18T11:17:44.804Z,11.00
2023-04-18T11:22:47.272Z,11.80
2023-04-18T11:27:45.618Z,11.50
2023-04-18T11:32:44.562Z,11.30
2023-04-18T11:37:44.962Z,11.10
2023-04-18T11:42:44.282Z,11.30
2023-04-18T11:47:45.547Z,13.30
2023-04-18T11:52:49.102Z,10.80
2023-04-18T11:57:50.067Z,10.40
2023-04-18T12:02:46.523Z,10.70
2023-04-18T12:07:44.827Z,10.40
2023-04-18T12:12:47.433Z,10.60
2023-04-18T12:17:45.739Z,10.30
2023-04-18T12:22:46.425Z,9.80
2023-04-18T12:27:48.755Z,9.70
2023-04-18T12:32:44.959Z,9.70
2023-04-18T12:37:45.454Z,9.40
2023-04-18T12:42:45.822Z,8.70
2023-04-18T12:47:45.868Z,7.70
2023-04-18T12:52:44.697Z,9.70
2023-04-18T12:57:44.147Z,8.40
2023-04-18T13:02:44.942Z,7.70
2023-04-18T13:07:46.252Z,9.00
2023-04-18T13:12:45.273Z,8.30
2023-04-18T13:17:44.207Z,8.00
2023-04-18T13:22:44.548Z,8.60
2023-04-18T15:56:57.737Z,4.80
2023-04-18T16:01:21.962Z,4.80
2023-04-18T16:06:22.704Z,4.20
2023-04-18T16:11:25.270Z,4.20
2023-04-18T16:15:29.894Z,4.40
2023-04-18T16:16:22.163Z,4.40
2023-04-18T16:21:21.890Z,4.60
2023-04-18T16:26:23.901Z,4.50
2023-04-18T16:31:22.068Z,4.30
2023-04-18T16:36:23.936Z,4.50
2023-04-18T16:41:22.233Z,4.90
2023-04-18T16:46:22.030Z,4.90
2023-04-18T16:51:22.164Z,4.60
2023-04-18T16:56:22.034Z,4.70
2023-04-18T16:59:35.348Z,5.10
2023-04-18T17:01:21.967Z,5.10
2023-04-18T17:06:23.505Z,4.50
2023-04-18T17:11:22.314Z,4.80
2023-04-18T17:16:22.096Z,4.90
2023-04-18T17:21:21.857Z,5.10
2023-04-18T17:26:23.377Z,7.60
2023-04-18T17:31:21.837Z,5.50
2023-04-18T17:36:21.835Z,4.90
2023-04-18T17:41:22.320Z,4.80
2023-04-18T17:46:21.912Z,5.50
2023-04-18T17:51:22.803Z,5.60
2023-04-18T17:56:22.150Z,7.10
2023-04-18T18:01:23.752Z,6.30
2023-04-18T18:06:21.820Z,6.20
2023-04-18T18:11:22.825Z,6.50
2023-04-18T18:16:22.933Z,5.90
2023-04-18T18:21:21.838Z,6.30
2023-04-18T18:26:22.070Z,6.20
2023-04-18T18:31:23.798Z,6.20
2023-04-18T18:36:21.865Z,7.20
2023-04-18T18:39:52.959Z,7.20
2023-04-18T18:41:22.417Z,7.60
2023-04-18T18:46:22.258Z,7.80
2023-04-18T18:51:22.797Z,7.40
2023-04-18T18:56:21.749Z,6.80
2023-04-18T19:01:22.121Z,7.10
2023-04-18T19:06:22.375Z,6.90
2023-04-18T19:11:21.980Z,7.00
2023-04-18T19:16:22.360Z,6.90
2023-04-18T19:21:22.183Z,6.60
2023-04-18T19:30:58.290Z,6.50
2023-04-18T19:31:22.114Z,6.50
2023-04-18T19:36:21.808Z,6.90
2023-04-18T19:41:23.951Z,6.20
2023-04-18T19:46:21.780Z,6.10
2023-04-18T19:51:22.002Z,5.20
2023-04-18T19:56:21.809Z,5.20
2023-04-18T20:01:23.178Z,5.40
2023-04-18T20:06:24.086Z,5.20
2023-04-18T20:11:21.989Z,5.10
2023-04-18T20:16:22.667Z,5.60
2023-04-18T20:21:22.057Z,5.60
2023-04-18T21:29:17.204Z,7.20
2023-04-18T21:34:02.023Z,7.00
2023-04-18T21:39:00.859Z,6.70
2023-04-18T21:44:00.821Z,7.10
2023-04-18T21:49:00.820Z,7.20
2023-04-18T21:54:00.730Z,6.90
2023-04-18T21:59:00.878Z,7.00
2023-04-18T22:04:00.892Z,7.10
2023-04-18T22:09:00.665Z,7.40
2023-04-18T22:14:00.898Z,6.40
2023-04-18T22:19:00.684Z,6.50
2023-04-18T22:24:02.438Z,6.60
2023-04-18T22:29:00.618Z,6.30
2023-04-18T22:34:00.724Z,7.00
2023-04-18T22:39:00.664Z,6.60
2023-04-18T22:44:00.757Z,6.40
2023-04-18T22:49:00.890Z,6.90
2023-04-18T23:04:48.593Z,6.40
2023-04-18T23:09:01.932Z,6.40
2023-04-18T23:14:01.284Z,6.10
2023-04-18T23:19:00.632Z,5.50
2023-04-18T23:24:00.836Z,5.70
2023-04-18T23:29:00.704Z,5.60
2023-04-18T23:34:00.814Z,5.00
2023-04-18T23:39:01.130Z,5.40
2023-04-18T23:44:01.444Z,5.40
2023-04-18T23:49:00.532Z,5.40
2023-04-18T23:54:00.664Z,5.30
2023-04-18T23:54:36.081Z,5.30
2023-04-18T23:59:00.536Z,4.80
